sensor_id;sensor_type;location;lat;lon;timestamp;P1;durP1;ratioP1;P2;durP2;ratioP2
49614;SDS011;35517;45.272;9.984;2022-11-15T00:02:23;101.65;;;22.35;;
49614;SDS011;35517;45.272;9.984;2022-11-15T00:05:08;89.18;;;21.38;;
49614;SDS011;35517;45.272;9.984;2022-11-15T00:07:53;120.63;;;23.38;;
49614;SDS011;35517;45.272;9.984;2022-11-15T00:10:38;126.22;;;22.65;;
49614;SDS011;35517;45.272;9.984;2022-11-15T00:13:23;121.57;;;22.65;;
49614;SDS011;35517;45.272;9.984;2022-11-15T00:16:08;136.75;;;24.83;;
49614;SDS011;35517;45.272;9.984;2022-11-15T00:18:54;114.50;;;24.83;;
49614;SDS011;35517;45.272;9.984;2022-11-15T00:21:40;127.57;;;23.35;;
49614;SDS011;35517;45.272;9.984;2022-11-15T00:24:25;104.10;;;21.50;;
49614;SDS011;35517;45.272;9.984;2022-11-15T00:27:10;101.68;;;24.83;;
49614;SDS011;35517;45.272;9.984;2022-11-15T00:29:57;92.53;;;22.55;;
49614;SDS011;35517;45.272;9.984;2022-11-15T00:32:42;77.70;;;22.00;;
49614;SDS011;35517;45.272;9.984;2022-11-15T00:35:27;90.35;;;23.45;;
49614;SDS011;35517;45.272;9.984;2022-11-15T00:38:12;119.38;;;23.73;;
49614;SDS011;35517;45.272;9.984;2022-11-15T00:40:57;68.75;;;23.80;;
49614;SDS011;35517;45.272;9.984;2022-11-15T00:43:42;57.47;;;21.45;;
49614;SDS011;35517;45.272;9.984;2022-11-15T00:46:27;70.00;;;21.65;;
49614;SDS011;35517;45.272;9.984;2022-11-15T00:49:13;111.30;;;23.70;;
49614;SDS011;35517;45.272;9.984;2022-11-15T00:51:58;81.57;;;20.20;;
49614;SDS011;35517;45.272;9.984;2022-11-15T00:54:42;98.50;;;23.40;;
49614;SDS011;35517;45.272;9.984;2022-11-15T00:57:27;87.80;;;22.33;;
49614;SDS011;35517;45.272;9.984;2022-11-15T01:00:12;46.30;;;19.27;;
49614;SDS011;35517;45.272;9.984;2022-11-15T01:02:58;55.72;;;20.25;;
49614;SDS011;35517;45.272;9.984;2022-11-15T01:05:44;42.55;;;18.15;;
49614;SDS011;35517;45.272;9.984;2022-11-15T01:08:29;44.92;;;18.90;;
49614;SDS011;35517;45.272;9.984;2022-11-15T01:11:14;53.60;;;18.40;;
49614;SDS011;35517;45.272;9.984;2022-11-15T01:13:59;53.72;;;20.75;;
49614;SDS011;35517;45.272;9.984;2022-11-15T01:16:44;46.85;;;19.35;;
49614;SDS011;35517;45.272;9.984;2022-11-15T01:19:29;57.45;;;19.75;;
49614;SDS011;35517;45.272;9.984;2022-11-15T01:22:14;51.55;;;19.13;;
49614;SDS011;35517;45.272;9.984;2022-11-15T01:24:59;68.63;;;21.70;;
49614;SDS011;35517;45.272;9.984;2022-11-15T01:27:44;52.92;;;18.77;;
49614;SDS011;35517;45.272;9.984;2022-11-15T01:30:29;60.97;;;19.95;;
49614;SDS011;35517;45.272;9.984;2022-11-15T01:33:14;59.47;;;17.60;;
49614;SDS011;35517;45.272;9.984;2022-11-15T01:35:59;52.47;;;17.52;;
49614;SDS011;35517;45.272;9.984;2022-11-15T01:38:54;46.47;;;18.02;;
49614;SDS011;35517;45.272;9.984;2022-11-15T01:41:39;54.75;;;18.92;;
49614;SDS011;35517;45.272;9.984;2022-11-15T01:47:17;42.83;;;19.05;;
49614;SDS011;35517;45.272;9.984;2022-11-15T01:50:05;72.70;;;19.70;;
49614;SDS011;35517;45.272;9.984;2022-11-15T01:52:51;73.68;;;19.40;;
49614;SDS011;35517;45.272;9.984;2022-11-15T01:55:36;81.60;;;20.17;;
49614;SDS011;35517;45.272;9.984;2022-11-15T01:58:22;57.25;;;19.88;;
49614;SDS011;35517;45.272;9.984;2022-11-15T02:01:07;77.18;;;20.60;;
49614;SDS011;35517;45.272;9.984;2022-11-15T02:03:54;54.97;;;17.88;;
49614;SDS011;35517;45.272;9.984;2022-11-15T02:06:40;48.03;;;19.42;;
49614;SDS011;35517;45.272;9.984;2022-11-15T02:09:26;59.13;;;18.67;;
49614;SDS011;35517;45.272;9.984;2022-11-15T02:12:12;83.13;;;16.75;;
49614;SDS011;35517;45.272;9.984;2022-11-15T02:14:59;69.68;;;16.83;;
49614;SDS011;35517;45.272;9.984;2022-11-15T02:29:28;80.13;;;17.55;;
49614;SDS011;35517;45.272;9.984;2022-11-15T02:37:57;60.17;;;16.00;;
49614;SDS011;35517;45.272;9.984;2022-11-15T02:46:54;66.95;;;15.75;;
49614;SDS011;35517;45.272;9.984;2022-11-15T02:50:00;77.30;;;15.75;;
49614;SDS011;35517;45.272;9.984;2022-11-15T02:52:47;63.35;;;15.13;;
49614;SDS011;35517;45.272;9.984;2022-11-15T03:07:16;59.78;;;15.10;;
49614;SDS011;35517;45.272;9.984;2022-11-15T03:10:11;43.22;;;13.55;;
49614;SDS011;35517;45.272;9.984;2022-11-15T03:12:58;53.15;;;13.93;;
49614;SDS011;35517;45.272;9.984;2022-11-15T03:15:51;75.20;;;15.52;;
49614;SDS011;35517;45.272;9.984;2022-11-15T03:18:38;48.38;;;13.68;;
49614;SDS011;35517;45.272;9.984;2022-11-15T03:21:25;52.65;;;13.85;;
49614;SDS011;35517;45.272;9.984;2022-11-15T03:24:13;39.40;;;13.55;;
49614;SDS011;35517;45.272;9.984;2022-11-15T03:27:01;43.22;;;12.90;;
49614;SDS011;35517;45.272;9.984;2022-11-15T03:29:49;41.17;;;13.57;;
49614;SDS011;35517;45.272;9.984;2022-11-15T03:32:37;32.35;;;12.98;;
49614;SDS011;35517;45.272;9.984;2022-11-15T03:35:24;33.13;;;11.80;;
49614;SDS011;35517;45.272;9.984;2022-11-15T03:38:25;36.58;;;12.05;;
49614;SDS011;35517;45.272;9.984;2022-11-15T03:41:21;24.98;;;12.10;;
49614;SDS011;35517;45.272;9.984;2022-11-15T03:47:20;22.08;;;11.88;;
49614;SDS011;35517;45.272;9.984;2022-11-15T03:50:13;40.45;;;12.75;;
49614;SDS011;35517;45.272;9.984;2022-11-15T03:52:59;19.42;;;11.15;;
49614;SDS011;35517;45.272;9.984;2022-11-15T03:55:45;28.40;;;11.15;;
49614;SDS011;35517;45.272;9.984;2022-11-15T03:58:30;25.75;;;11.32;;
49614;SDS011;35517;45.272;9.984;2022-11-15T04:01:15;25.10;;;11.38;;
49614;SDS011;35517;45.272;9.984;2022-11-15T04:04:00;22.60;;;11.10;;
49614;SDS011;35517;45.272;9.984;2022-11-15T04:06:45;28.42;;;10.35;;
49614;SDS011;35517;45.272;9.984;2022-11-15T04:09:30;29.55;;;10.93;;
49614;SDS011;35517;45.272;9.984;2022-11-15T04:12:15;17.77;;;9.93;;
49614;SDS011;35517;45.272;9.984;2022-11-15T04:15:15;18.55;;;10.68;;
49614;SDS011;35517;45.272;9.984;2022-11-15T04:18:01;16.90;;;10.65;;
49614;SDS011;35517;45.272;9.984;2022-11-15T04:20:46;19.50;;;9.88;;
49614;SDS011;35517;45.272;9.984;2022-11-15T04:23:50;18.45;;;12.02;;
49614;SDS011;35517;45.272;9.984;2022-11-15T04:29:39;19.98;;;10.77;;
49614;SDS011;35517;45.272;9.984;2022-11-15T04:32:24;21.10;;;13.18;;
49614;SDS011;35517;45.272;9.984;2022-11-15T04:35:09;21.10;;;13.43;;
49614;SDS011;35517;45.272;9.984;2022-11-15T04:37:54;22.98;;;13.00;;
49614;SDS011;35517;45.272;9.984;2022-11-15T04:40:39;22.95;;;13.13;;
49614;SDS011;35517;45.272;9.984;2022-11-15T04:43:24;23.67;;;12.80;;
49614;SDS011;35517;45.272;9.984;2022-11-15T04:46:09;24.75;;;15.48;;
49614;SDS011;35517;45.272;9.984;2022-11-15T04:48:54;23.75;;;14.48;;
49614;SDS011;35517;45.272;9.984;2022-11-15T04:51:40;24.75;;;14.82;;
49614;SDS011;35517;45.272;9.984;2022-11-15T04:54:25;27.05;;;14.63;;
49614;SDS011;35517;45.272;9.984;2022-11-15T04:57:10;25.05;;;13.85;;
49614;SDS011;35517;45.272;9.984;2022-11-15T04:59:55;25.48;;;14.43;;
49614;SDS011;35517;45.272;9.984;2022-11-15T05:02:40;21.38;;;13.95;;
49614;SDS011;35517;45.272;9.984;2022-11-15T05:08:29;20.83;;;12.20;;
49614;SDS011;35517;45.272;9.984;2022-11-15T05:11:14;18.45;;;11.50;;
49614;SDS011;35517;45.272;9.984;2022-11-15T05:13:59;19.73;;;12.77;;
49614;SDS011;35517;45.272;9.984;2022-11-15T05:16:43;20.25;;;13.10;;
49614;SDS011;35517;45.272;9.984;2022-11-15T05:19:29;20.15;;;12.80;;
49614;SDS011;35517;45.272;9.984;2022-11-15T05:22:14;22.17;;;14.43;;
49614;SDS011;35517;45.272;9.984;2022-11-15T05:24:59;20.45;;;13.05;;
49614;SDS011;35517;45.272;9.984;2022-11-15T05:27:43;20.25;;;12.48;;
49614;SDS011;35517;45.272;9.984;2022-11-15T05:30:29;18.92;;;12.77;;
49614;SDS011;35517;45.272;9.984;2022-11-15T05:33:14;26.33;;;14.00;;
49614;SDS011;35517;45.272;9.984;2022-11-15T05:36:42;25.33;;;13.90;;
49614;SDS011;35517;45.272;9.984;2022-11-15T05:39:08;21.17;;;13.82;;
49614;SDS011;35517;45.272;9.984;2022-11-15T05:41:57;24.35;;;13.50;;
49614;SDS011;35517;45.272;9.984;2022-11-15T05:44:47;21.95;;;13.38;;
49614;SDS011;35517;45.272;9.984;2022-11-15T05:47:33;21.50;;;13.52;;
49614;SDS011;35517;45.272;9.984;2022-11-15T05:50:19;21.50;;;13.93;;
49614;SDS011;35517;45.272;9.984;2022-11-15T05:53:04;22.65;;;13.55;;
49614;SDS011;35517;45.272;9.984;2022-11-15T05:55:50;21.42;;;12.80;;
49614;SDS011;35517;45.272;9.984;2022-11-15T05:58:36;25.25;;;14.23;;
49614;SDS011;35517;45.272;9.984;2022-11-15T06:01:21;22.35;;;13.18;;
49614;SDS011;35517;45.272;9.984;2022-11-15T06:04:06;23.10;;;14.60;;
49614;SDS011;35517;45.272;9.984;2022-11-15T06:06:51;20.15;;;13.00;;
49614;SDS011;35517;45.272;9.984;2022-11-15T06:09:36;20.65;;;12.85;;
49614;SDS011;35517;45.272;9.984;2022-11-15T06:12:21;24.08;;;14.45;;
49614;SDS011;35517;45.272;9.984;2022-11-15T06:15:06;20.13;;;13.07;;
49614;SDS011;35517;45.272;9.984;2022-11-15T06:17:51;24.83;;;14.23;;
49614;SDS011;35517;45.272;9.984;2022-11-15T06:20:41;25.13;;;14.00;;
49614;SDS011;35517;45.272;9.984;2022-11-15T06:23:26;21.80;;;13.85;;
49614;SDS011;35517;45.272;9.984;2022-11-15T06:26:11;26.38;;;14.23;;
49614;SDS011;35517;45.272;9.984;2022-11-15T06:28:56;22.05;;;14.50;;
49614;SDS011;35517;45.272;9.984;2022-11-15T06:31:41;24.45;;;14.30;;
49614;SDS011;35517;45.272;9.984;2022-11-15T06:34:26;21.17;;;13.95;;
49614;SDS011;35517;45.272;9.984;2022-11-15T06:37:11;25.98;;;16.10;;
49614;SDS011;35517;45.272;9.984;2022-11-15T06:39:56;29.05;;;13.98;;
49614;SDS011;35517;45.272;9.984;2022-11-15T06:42:41;25.35;;;15.40;;
49614;SDS011;35517;45.272;9.984;2022-11-15T06:45:27;26.58;;;14.02;;
49614;SDS011;35517;45.272;9.984;2022-11-15T06:48:12;26.02;;;14.93;;
49614;SDS011;35517;45.272;9.984;2022-11-15T06:50:57;26.27;;;15.27;;
49614;SDS011;35517;45.272;9.984;2022-11-15T06:53:43;26.27;;;16.20;;
49614;SDS011;35517;45.272;9.984;2022-11-15T06:56:28;26.17;;;15.98;;
49614;SDS011;35517;45.272;9.984;2022-11-15T06:59:13;27.23;;;15.57;;
49614;SDS011;35517;45.272;9.984;2022-11-15T07:01:58;29.63;;;14.68;;
49614;SDS011;35517;45.272;9.984;2022-11-15T07:04:43;29.10;;;16.95;;
49614;SDS011;35517;45.272;9.984;2022-11-15T07:07:28;26.10;;;15.02;;
49614;SDS011;35517;45.272;9.984;2022-11-15T07:10:13;26.95;;;16.17;;
49614;SDS011;35517;45.272;9.984;2022-11-15T07:12:58;25.67;;;15.40;;
49614;SDS011;35517;45.272;9.984;2022-11-15T07:15:43;25.73;;;14.45;;
49614;SDS011;35517;45.272;9.984;2022-11-15T07:18:28;24.05;;;14.20;;
49614;SDS011;35517;45.272;9.984;2022-11-15T07:21:14;28.67;;;16.20;;
49614;SDS011;35517;45.272;9.984;2022-11-15T07:23:59;24.25;;;14.48;;
49614;SDS011;35517;45.272;9.984;2022-11-15T07:26:43;23.35;;;13.18;;
49614;SDS011;35517;45.272;9.984;2022-11-15T07:29:28;22.90;;;13.80;;
49614;SDS011;35517;45.272;9.984;2022-11-15T07:32:15;25.95;;;14.65;;
49614;SDS011;35517;45.272;9.984;2022-11-15T07:34:59;25.88;;;15.25;;
49614;SDS011;35517;45.272;9.984;2022-11-15T07:37:52;25.05;;;14.90;;
49614;SDS011;35517;45.272;9.984;2022-11-15T07:40:37;25.33;;;14.48;;
49614;SDS011;35517;45.272;9.984;2022-11-15T07:43:22;24.17;;;14.35;;
49614;SDS011;35517;45.272;9.984;2022-11-15T07:46:08;26.38;;;15.75;;
49614;SDS011;35517;45.272;9.984;2022-11-15T07:48:53;27.65;;;13.98;;
49614;SDS011;35517;45.272;9.984;2022-11-15T07:51:38;27.40;;;14.70;;
49614;SDS011;35517;45.272;9.984;2022-11-15T07:54:23;28.45;;;13.40;;
49614;SDS011;35517;45.272;9.984;2022-11-15T07:57:08;24.27;;;15.30;;
49614;SDS011;35517;45.272;9.984;2022-11-15T07:59:54;23.77;;;13.52;;
49614;SDS011;35517;45.272;9.984;2022-11-15T08:02:39;29.92;;;15.30;;
49614;SDS011;35517;45.272;9.984;2022-11-15T08:05:24;29.13;;;16.58;;
49614;SDS011;35517;45.272;9.984;2022-11-15T08:08:09;35.22;;;15.68;;
49614;SDS011;35517;45.272;9.984;2022-11-15T08:10:56;30.30;;;14.65;;
49614;SDS011;35517;45.272;9.984;2022-11-15T08:13:41;28.40;;;14.63;;
49614;SDS011;35517;45.272;9.984;2022-11-15T08:16:26;28.75;;;15.07;;
49614;SDS011;35517;45.272;9.984;2022-11-15T08:19:11;26.52;;;15.25;;
49614;SDS011;35517;45.272;9.984;2022-11-15T08:21:56;27.20;;;15.43;;
49614;SDS011;35517;45.272;9.984;2022-11-15T08:24:41;28.02;;;14.90;;
49614;SDS011;35517;45.272;9.984;2022-11-15T08:27:26;24.63;;;14.40;;
49614;SDS011;35517;45.272;9.984;2022-11-15T08:30:11;29.38;;;15.70;;
49614;SDS011;35517;45.272;9.984;2022-11-15T08:32:57;27.33;;;15.32;;
49614;SDS011;35517;45.272;9.984;2022-11-15T08:35:42;25.48;;;15.68;;
49614;SDS011;35517;45.272;9.984;2022-11-15T08:38:28;29.65;;;16.48;;
49614;SDS011;35517;45.272;9.984;2022-11-15T08:41:27;28.80;;;15.63;;
49614;SDS011;35517;45.272;9.984;2022-11-15T08:44:13;28.45;;;16.63;;
49614;SDS011;35517;45.272;9.984;2022-11-15T08:46:57;27.67;;;16.95;;
49614;SDS011;35517;45.272;9.984;2022-11-15T08:49:42;30.60;;;16.88;;
49614;SDS011;35517;45.272;9.984;2022-11-15T08:52:28;27.27;;;17.40;;
49614;SDS011;35517;45.272;9.984;2022-11-15T08:55:12;31.42;;;17.33;;
49614;SDS011;35517;45.272;9.984;2022-11-15T08:57:58;28.08;;;16.00;;
49614;SDS011;35517;45.272;9.984;2022-11-15T09:00:43;27.52;;;14.85;;
49614;SDS011;35517;45.272;9.984;2022-11-15T09:03:27;26.85;;;15.63;;
49614;SDS011;35517;45.272;9.984;2022-11-15T09:06:12;29.55;;;16.10;;
49614;SDS011;35517;45.272;9.984;2022-11-15T09:08:57;28.40;;;16.23;;
49614;SDS011;35517;45.272;9.984;2022-11-15T09:11:43;27.50;;;16.02;;
49614;SDS011;35517;45.272;9.984;2022-11-15T09:14:28;31.27;;;17.85;;
49614;SDS011;35517;45.272;9.984;2022-11-15T09:17:12;30.05;;;17.70;;
49614;SDS011;35517;45.272;9.984;2022-11-15T09:19:57;28.15;;;15.57;;
49614;SDS011;35517;45.272;9.984;2022-11-15T09:22:42;25.85;;;14.00;;
49614;SDS011;35517;45.272;9.984;2022-11-15T09:25:28;24.67;;;15.23;;
49614;SDS011;35517;45.272;9.984;2022-11-15T09:28:13;23.63;;;15.18;;
49614;SDS011;35517;45.272;9.984;2022-11-15T09:31:01;23.77;;;15.57;;
49614;SDS011;35517;45.272;9.984;2022-11-15T09:33:47;25.15;;;14.43;;
49614;SDS011;35517;45.272;9.984;2022-11-15T09:36:32;26.35;;;13.52;;
49614;SDS011;35517;45.272;9.984;2022-11-15T09:39:16;22.27;;;14.18;;
49614;SDS011;35517;45.272;9.984;2022-11-15T09:44:59;28.42;;;15.00;;
49614;SDS011;35517;45.272;9.984;2022-11-15T09:48:11;23.13;;;14.82;;
49614;SDS011;35517;45.272;9.984;2022-11-15T09:51:08;44.05;;;25.67;;
49614;SDS011;35517;45.272;9.984;2022-11-15T09:53:43;32.42;;;18.83;;
49614;SDS011;35517;45.272;9.984;2022-11-15T09:56:19;25.92;;;14.40;;
49614;SDS011;35517;45.272;9.984;2022-11-15T10:01:28;21.40;;;15.05;;
49614;SDS011;35517;45.272;9.984;2022-11-15T10:03:59;23.73;;;15.05;;
49614;SDS011;35517;45.272;9.984;2022-11-15T10:06:26;22.05;;;15.18;;
49614;SDS011;35517;45.272;9.984;2022-11-15T10:08:55;25.17;;;15.63;;
49614;SDS011;35517;45.272;9.984;2022-11-15T10:11:27;25.00;;;15.97;;
49614;SDS011;35517;45.272;9.984;2022-11-15T10:13:56;23.35;;;15.40;;
49614;SDS011;35517;45.272;9.984;2022-11-15T10:21:52;29.38;;;17.58;;
49614;SDS011;35517;45.272;9.984;2022-11-15T10:24:24;30.73;;;15.65;;
49614;SDS011;35517;45.272;9.984;2022-11-15T10:26:54;30.08;;;16.30;;
49614;SDS011;35517;45.272;9.984;2022-11-15T10:29:22;28.75;;;16.58;;
49614;SDS011;35517;45.272;9.984;2022-11-15T10:31:48;29.48;;;17.40;;
49614;SDS011;35517;45.272;9.984;2022-11-15T10:34:19;23.48;;;16.00;;
49614;SDS011;35517;45.272;9.984;2022-11-15T10:36:56;26.73;;;16.50;;
49614;SDS011;35517;45.272;9.984;2022-11-15T10:39:24;36.10;;;18.67;;
49614;SDS011;35517;45.272;9.984;2022-11-15T10:41:50;27.88;;;17.65;;
49614;SDS011;35517;45.272;9.984;2022-11-15T10:57:22;26.85;;;15.88;;
49614;SDS011;35517;45.272;9.984;2022-11-15T10:59:53;27.20;;;17.40;;
49614;SDS011;35517;45.272;9.984;2022-11-15T11:03:24;26.25;;;16.58;;
49614;SDS011;35517;45.272;9.984;2022-11-15T11:10:39;28.92;;;17.70;;
49614;SDS011;35517;45.272;9.984;2022-11-15T11:13:22;29.15;;;18.77;;
49614;SDS011;35517;45.272;9.984;2022-11-15T11:15:51;33.35;;;21.15;;
49614;SDS011;35517;45.272;9.984;2022-11-15T11:18:25;34.78;;;21.17;;
49614;SDS011;35517;45.272;9.984;2022-11-15T11:20:58;33.63;;;20.45;;
49614;SDS011;35517;45.272;9.984;2022-11-15T11:36:50;31.08;;;19.35;;
49614;SDS011;35517;45.272;9.984;2022-11-15T11:44:29;36.25;;;21.35;;
49614;SDS011;35517;45.272;9.984;2022-11-15T11:47:01;36.88;;;22.65;;
49614;SDS011;35517;45.272;9.984;2022-11-15T11:49:46;37.40;;;21.67;;
49614;SDS011;35517;45.272;9.984;2022-11-15T11:54:53;32.60;;;21.17;;
49614;SDS011;35517;45.272;9.984;2022-11-15T11:57:25;36.75;;;21.73;;
49614;SDS011;35517;45.272;9.984;2022-11-15T11:59:57;38.10;;;22.80;;
49614;SDS011;35517;45.272;9.984;2022-11-15T12:04:57;38.70;;;24.23;;
49614;SDS011;35517;45.272;9.984;2022-11-15T12:07:29;38.17;;;21.98;;
49614;SDS011;35517;45.272;9.984;2022-11-15T12:12:38;37.33;;;21.17;;
49614;SDS011;35517;45.272;9.984;2022-11-15T12:17:41;45.55;;;19.55;;
49614;SDS011;35517;45.272;9.984;2022-11-15T12:20:18;39.65;;;23.00;;
49614;SDS011;35517;45.272;9.984;2022-11-15T12:22:59;32.50;;;19.50;;
49614;SDS011;35517;45.272;9.984;2022-11-15T12:30:22;34.50;;;20.77;;
49614;SDS011;35517;45.272;9.984;2022-11-15T12:32:54;30.60;;;19.80;;
49614;SDS011;35517;45.272;9.984;2022-11-15T12:37:52;32.95;;;21.35;;
49614;SDS011;35517;45.272;9.984;2022-11-15T12:40:22;33.33;;;18.50;;
49614;SDS011;35517;45.272;9.984;2022-11-15T12:45:28;28.20;;;19.30;;
49614;SDS011;35517;45.272;9.984;2022-11-15T12:56:02;29.25;;;18.83;;
49614;SDS011;35517;45.272;9.984;2022-11-15T13:06:46;25.10;;;16.33;;
49614;SDS011;35517;45.272;9.984;2022-11-15T13:12:02;24.80;;;16.85;;
49614;SDS011;35517;45.272;9.984;2022-11-15T13:27:47;27.00;;;19.05;;
49614;SDS011;35517;45.272;9.984;2022-11-15T13:30:21;24.67;;;17.23;;
49614;SDS011;35517;45.272;9.984;2022-11-15T13:32:48;26.63;;;15.90;;
49614;SDS011;35517;45.272;9.984;2022-11-15T13:35:23;25.95;;;16.23;;
49614;SDS011;35517;45.272;9.984;2022-11-15T13:37:50;24.83;;;15.00;;
49614;SDS011;35517;45.272;9.984;2022-11-15T13:40:22;26.05;;;15.73;;
49614;SDS011;35517;45.272;9.984;2022-11-15T13:42:50;20.88;;;14.93;;
49614;SDS011;35517;45.272;9.984;2022-11-15T13:45:17;21.13;;;14.10;;
49614;SDS011;35517;45.272;9.984;2022-11-15T13:47:44;22.52;;;14.70;;
49614;SDS011;35517;45.272;9.984;2022-11-15T13:50:17;22.13;;;13.93;;
49614;SDS011;35517;45.272;9.984;2022-11-15T13:52:44;19.80;;;14.00;;
49614;SDS011;35517;45.272;9.984;2022-11-15T13:55:18;19.92;;;13.50;;
49614;SDS011;35517;45.272;9.984;2022-11-15T13:57:48;18.83;;;12.98;;
49614;SDS011;35517;45.272;9.984;2022-11-15T14:00:35;20.48;;;12.88;;
49614;SDS011;35517;45.272;9.984;2022-11-15T14:03:07;20.05;;;14.50;;
49614;SDS011;35517;45.272;9.984;2022-11-15T14:05:34;22.25;;;14.82;;
49614;SDS011;35517;45.272;9.984;2022-11-15T14:10:46;20.95;;;13.90;;
49614;SDS011;35517;45.272;9.984;2022-11-15T14:13:34;21.38;;;13.15;;
49614;SDS011;35517;45.272;9.984;2022-11-15T14:16:20;20.17;;;14.02;;
49614;SDS011;35517;45.272;9.984;2022-11-15T14:18:51;19.63;;;14.32;;
49614;SDS011;35517;45.272;9.984;2022-11-15T14:21:18;21.20;;;14.35;;
49614;SDS011;35517;45.272;9.984;2022-11-15T14:23:45;20.83;;;14.57;;
49614;SDS011;35517;45.272;9.984;2022-11-15T14:26:29;20.42;;;15.27;;
49614;SDS011;35517;45.272;9.984;2022-11-15T14:28:56;20.92;;;13.68;;
49614;SDS011;35517;45.272;9.984;2022-11-15T14:31:22;19.42;;;13.60;;
49614;SDS011;35517;45.272;9.984;2022-11-15T14:33:49;21.67;;;14.82;;
49614;SDS011;35517;45.272;9.984;2022-11-15T14:36:16;18.75;;;12.30;;
49614;SDS011;35517;45.272;9.984;2022-11-15T14:38:43;19.23;;;13.23;;
49614;SDS011;35517;45.272;9.984;2022-11-15T14:43:41;20.73;;;12.25;;
49614;SDS011;35517;45.272;9.984;2022-11-15T14:46:08;16.40;;;11.60;;
49614;SDS011;35517;45.272;9.984;2022-11-15T14:48:34;17.30;;;12.18;;
49614;SDS011;35517;45.272;9.984;2022-11-15T14:51:02;18.08;;;12.85;;
49614;SDS011;35517;45.272;9.984;2022-11-15T14:53:28;20.27;;;13.70;;
49614;SDS011;35517;45.272;9.984;2022-11-15T14:55:55;20.60;;;13.35;;
49614;SDS011;35517;45.272;9.984;2022-11-15T14:58:22;19.38;;;13.07;;
49614;SDS011;35517;45.272;9.984;2022-11-15T15:00:49;18.27;;;12.20;;
49614;SDS011;35517;45.272;9.984;2022-11-15T15:03:16;16.98;;;12.05;;
49614;SDS011;35517;45.272;9.984;2022-11-15T15:05:43;22.20;;;12.30;;
49614;SDS011;35517;45.272;9.984;2022-11-15T15:08:10;16.65;;;11.55;;
49614;SDS011;35517;45.272;9.984;2022-11-15T15:10:38;20.67;;;13.40;;
49614;SDS011;35517;45.272;9.984;2022-11-15T15:13:05;21.77;;;15.27;;
49614;SDS011;35517;45.272;9.984;2022-11-15T15:15:33;19.30;;;13.48;;
49614;SDS011;35517;45.272;9.984;2022-11-15T15:18:00;25.52;;;13.60;;
49614;SDS011;35517;45.272;9.984;2022-11-15T15:20:27;25.17;;;16.20;;
49614;SDS011;35517;45.272;9.984;2022-11-15T15:22:54;21.77;;;13.40;;
49614;SDS011;35517;45.272;9.984;2022-11-15T15:27:47;20.27;;;13.55;;
49614;SDS011;35517;45.272;9.984;2022-11-15T15:30:14;24.90;;;15.90;;
49614;SDS011;35517;45.272;9.984;2022-11-15T15:32:40;23.73;;;15.02;;
49614;SDS011;35517;45.272;9.984;2022-11-15T15:35:07;19.95;;;13.85;;
49614;SDS011;35517;45.272;9.984;2022-11-15T15:37:36;23.33;;;14.15;;
49614;SDS011;35517;45.272;9.984;2022-11-15T15:40:03;23.52;;;14.93;;
49614;SDS011;35517;45.272;9.984;2022-11-15T15:42:29;30.73;;;14.85;;
49614;SDS011;35517;45.272;9.984;2022-11-15T15:44:56;22.35;;;14.07;;
49614;SDS011;35517;45.272;9.984;2022-11-15T15:47:23;25.23;;;13.48;;
49614;SDS011;35517;45.272;9.984;2022-11-15T15:49:50;27.50;;;16.17;;
49614;SDS011;35517;45.272;9.984;2022-11-15T15:52:17;25.58;;;15.18;;
49614;SDS011;35517;45.272;9.984;2022-11-15T15:54:43;22.52;;;14.70;;
49614;SDS011;35517;45.272;9.984;2022-11-15T15:57:13;22.08;;;13.68;;
49614;SDS011;35517;45.272;9.984;2022-11-15T15:59:40;23.83;;;14.05;;
49614;SDS011;35517;45.272;9.984;2022-11-15T16:02:13;18.35;;;12.25;;
49614;SDS011;35517;45.272;9.984;2022-11-15T16:04:40;22.05;;;13.75;;
49614;SDS011;35517;45.272;9.984;2022-11-15T16:07:08;21.63;;;13.00;;
49614;SDS011;35517;45.272;9.984;2022-11-15T16:09:38;23.77;;;14.13;;
49614;SDS011;35517;45.272;9.984;2022-11-15T16:12:24;20.55;;;12.35;;
49614;SDS011;35517;45.272;9.984;2022-11-15T16:14:50;25.00;;;14.48;;
49614;SDS011;35517;45.272;9.984;2022-11-15T16:17:18;20.52;;;12.65;;
49614;SDS011;35517;45.272;9.984;2022-11-15T16:19:46;20.95;;;13.38;;
49614;SDS011;35517;45.272;9.984;2022-11-15T16:22:14;22.50;;;13.00;;
49614;SDS011;35517;45.272;9.984;2022-11-15T16:24:41;34.45;;;21.80;;
49614;SDS011;35517;45.272;9.984;2022-11-15T16:27:12;78.80;;;46.50;;
49614;SDS011;35517;45.272;9.984;2022-11-15T16:29:43;37.35;;;22.30;;
49614;SDS011;35517;45.272;9.984;2022-11-15T16:32:18;45.72;;;29.02;;
49614;SDS011;35517;45.272;9.984;2022-11-15T16:34:48;36.20;;;21.33;;
49614;SDS011;35517;45.272;9.984;2022-11-15T16:37:20;23.40;;;16.13;;
49614;SDS011;35517;45.272;9.984;2022-11-15T16:39:48;26.17;;;14.90;;
49614;SDS011;35517;45.272;9.984;2022-11-15T16:42:14;29.40;;;16.27;;
49614;SDS011;35517;45.272;9.984;2022-11-15T16:44:41;26.83;;;17.60;;
49614;SDS011;35517;45.272;9.984;2022-11-15T16:47:18;28.70;;;15.60;;
49614;SDS011;35517;45.272;9.984;2022-11-15T16:49:45;23.60;;;14.68;;
49614;SDS011;35517;45.272;9.984;2022-11-15T16:52:12;21.52;;;13.40;;
49614;SDS011;35517;45.272;9.984;2022-11-15T16:54:38;24.23;;;14.43;;
49614;SDS011;35517;45.272;9.984;2022-11-15T16:57:05;21.13;;;15.07;;
49614;SDS011;35517;45.272;9.984;2022-11-15T16:59:32;22.77;;;14.60;;
49614;SDS011;35517;45.272;9.984;2022-11-15T17:01:58;27.52;;;16.63;;
49614;SDS011;35517;45.272;9.984;2022-11-15T17:04:25;24.25;;;15.32;;
49614;SDS011;35517;45.272;9.984;2022-11-15T17:06:57;23.02;;;14.48;;
49614;SDS011;35517;45.272;9.984;2022-11-15T17:09:24;22.15;;;14.93;;
49614;SDS011;35517;45.272;9.984;2022-11-15T17:11:51;22.73;;;13.85;;
49614;SDS011;35517;45.272;9.984;2022-11-15T17:14:18;19.75;;;13.25;;
49614;SDS011;35517;45.272;9.984;2022-11-15T17:16:45;26.60;;;15.70;;
49614;SDS011;35517;45.272;9.984;2022-11-15T17:19:13;20.40;;;14.02;;
49614;SDS011;35517;45.272;9.984;2022-11-15T17:21:41;24.42;;;13.57;;
49614;SDS011;35517;45.272;9.984;2022-11-15T17:24:08;22.80;;;13.32;;
49614;SDS011;35517;45.272;9.984;2022-11-15T17:26:36;19.33;;;13.15;;
49614;SDS011;35517;45.272;9.984;2022-11-15T17:29:04;18.58;;;11.70;;
49614;SDS011;35517;45.272;9.984;2022-11-15T17:31:35;22.80;;;12.43;;
49614;SDS011;35517;45.272;9.984;2022-11-15T17:34:02;20.67;;;12.18;;
49614;SDS011;35517;45.272;9.984;2022-11-15T17:36:29;21.75;;;12.48;;
49614;SDS011;35517;45.272;9.984;2022-11-15T17:38:56;19.02;;;13.52;;
49614;SDS011;35517;45.272;9.984;2022-11-15T17:41:23;18.60;;;12.82;;
49614;SDS011;35517;45.272;9.984;2022-11-15T17:43:50;19.92;;;12.52;;
49614;SDS011;35517;45.272;9.984;2022-11-15T17:46:19;20.00;;;11.55;;
49614;SDS011;35517;45.272;9.984;2022-11-15T17:48:46;17.98;;;11.13;;
49614;SDS011;35517;45.272;9.984;2022-11-15T17:51:15;14.45;;;10.00;;
49614;SDS011;35517;45.272;9.984;2022-11-15T17:53:43;17.95;;;11.27;;
49614;SDS011;35517;45.272;9.984;2022-11-15T17:56:17;17.08;;;11.00;;
49614;SDS011;35517;45.272;9.984;2022-11-15T17:58:54;16.90;;;10.52;;
49614;SDS011;35517;45.272;9.984;2022-11-15T18:03:48;17.98;;;11.57;;
49614;SDS011;35517;45.272;9.984;2022-11-15T18:06:15;24.63;;;11.18;;
49614;SDS011;35517;45.272;9.984;2022-11-15T18:08:43;16.65;;;10.82;;